createdAt,value
2022-12-28T00:00:07.182Z,9.40
2022-12-28T00:02:40.663Z,9.43
2022-12-28T00:05:10.251Z,9.82
2022-12-28T00:07:38.597Z,9.75
2022-12-28T00:10:09.426Z,10.45
2022-12-28T00:12:37.756Z,10.07
2022-12-28T00:15:07.431Z,9.52
2022-12-28T00:17:35.773Z,10.23
2022-12-28T00:20:04.260Z,10.50
2022-12-28T00:22:32.526Z,10.27
2022-12-28T00:25:00.844Z,11.32
2022-12-28T00:27:30.572Z,11.40
2022-12-28T00:30:00.704Z,11.43
2022-12-28T00:32:29.887Z,12.07
2022-12-28T00:34:58.308Z,12.10
2022-12-28T00:37:28.081Z,11.32
2022-12-28T00:39:57.336Z,11.88
2022-12-28T00:42:25.731Z,12.23
2022-12-28T00:44:55.420Z,11.52
2022-12-28T00:47:23.799Z,11.90
2022-12-28T00:49:52.138Z,11.55
2022-12-28T00:52:20.693Z,12.25
2022-12-28T00:54:49.112Z,13.60
2022-12-28T00:57:17.423Z,12.30
2022-12-28T00:59:45.719Z,12.18
2022-12-28T01:02:15.486Z,12.02
2022-12-28T01:04:43.921Z,12.30
2022-12-28T01:07:12.609Z,12.05
2022-12-28T01:09:42.021Z,10.77
2022-12-28T01:12:10.297Z,11.45
2022-12-28T01:14:38.566Z,11.52
2022-12-28T01:17:06.881Z,11.80
2022-12-28T01:19:36.641Z,11.77
2022-12-28T01:22:06.167Z,12.13
2022-12-28T01:24:34.542Z,11.43
2022-12-28T01:27:03.129Z,11.98
2022-12-28T01:29:31.707Z,11.77
2022-12-28T01:32:00.062Z,11.77
2022-12-28T01:34:30.993Z,11.80
2022-12-28T01:37:00.615Z,12.13
2022-12-28T01:39:29.286Z,12.32
2022-12-28T01:41:57.887Z,12.88
2022-12-28T01:44:45.969Z,13.68
2022-12-28T01:47:19.735Z,12.25
2022-12-28T01:49:59.599Z,12.80
2022-12-28T01:52:34.846Z,12.27
2022-12-28T01:55:10.193Z,12.75
2022-12-28T01:57:44.630Z,12.00
2022-12-28T02:00:16.176Z,12.02
2022-12-28T02:02:54.661Z,11.70
2022-12-28T02:05:28.291Z,11.75
2022-12-28T02:08:03.928Z,11.60
2022-12-28T02:10:44.578Z,11.43
2022-12-28T02:13:16.205Z,11.02
2022-12-28T02:15:45.819Z,10.55
2022-12-28T02:18:15.777Z,11.05
2022-12-28T02:21:03.824Z,10.80
2022-12-28T02:24:04.883Z,10.80
2022-12-28T02:26:48.639Z,11.77
2022-12-28T02:29:55.309Z,10.05
2022-12-28T02:32:48.447Z,11.10
2022-12-28T02:35:24.318Z,11.00
2022-12-28T02:37:59.039Z,10.45
2022-12-28T02:40:34.014Z,11.18
2022-12-28T02:43:04.428Z,10.65
2022-12-28T02:45:57.516Z,10.85
2022-12-28T02:48:43.871Z,10.85
2022-12-28T02:51:48.695Z,11.30
2022-12-28T02:55:31.196Z,10.80
2022-12-28T02:58:23.824Z,10.18
2022-12-28T03:01:11.168Z,10.60
2022-12-28T03:03:54.160Z,9.95
2022-12-28T03:06:48.479Z,10.18
2022-12-28T03:09:25.451Z,10.73
2022-12-28T03:12:00.201Z,9.93
2022-12-28T03:14:37.298Z,10.52
2022-12-28T03:17:28.787Z,10.68
2022-12-28T03:20:21.884Z,10.07
2022-12-28T03:23:09.153Z,10.57
2022-12-28T03:26:01.451Z,9.82
2022-12-28T03:28:55.093Z,8.95
2022-12-28T03:31:29.054Z,8.82
2022-12-28T03:34:07.618Z,8.88
2022-12-28T03:36:49.356Z,9.85
2022-12-28T03:39:26.577Z,9.15
2022-12-28T03:42:18.240Z,8.32
2022-12-28T03:44:56.043Z,8.00
2022-12-28T03:47:27.775Z,8.05
2022-12-28T03:49:57.741Z,8.77
2022-12-28T03:52:26.721Z,7.13
2022-12-28T03:54:55.091Z,7.65
2022-12-28T03:57:24.514Z,7.05
2022-12-28T03:59:52.955Z,7.40
2022-12-28T04:02:21.434Z,7.25
2022-12-28T04:04:50.152Z,8.30
2022-12-28T04:07:19.838Z,7.85
2022-12-28T04:09:50.042Z,7.18
2022-12-28T04:12:18.431Z,7.10
2022-12-28T04:15:08.440Z,7.05
2022-12-28T04:17:36.917Z,6.80
2022-12-28T04:20:06.956Z,8.10
2022-12-28T04:22:37.082Z,8.95
2022-12-28T04:25:06.372Z,7.60
2022-12-28T04:27:36.450Z,8.35
2022-12-28T04:30:13.182Z,7.68
2022-12-28T04:32:42.328Z,7.50
2022-12-28T04:35:10.845Z,7.50
2022-12-28T04:37:48.885Z,7.47
2022-12-28T04:40:17.220Z,7.28
2022-12-28T04:42:45.706Z,6.90
2022-12-28T04:45:18.397Z,6.85
2022-12-28T04:47:50.197Z,6.70
2022-12-28T04:50:18.747Z,6.97
2022-12-28T04:52:48.417Z,6.90
2022-12-28T04:55:32.469Z,6.93
2022-12-28T04:58:01.973Z,6.95
2022-12-28T05:00:30.329Z,7.30
2022-12-28T05:03:00.779Z,6.90
2022-12-28T05:05:30.615Z,7.05
2022-12-28T05:08:02.485Z,6.65
2022-12-28T05:10:31.450Z,6.72
2022-12-28T05:12:59.795Z,6.53
2022-12-28T05:15:28.099Z,7.30
2022-12-28T05:17:57.198Z,7.05
2022-12-28T05:20:25.559Z,6.63
2022-12-28T05:22:53.861Z,6.75
2022-12-28T05:25:23.624Z,6.47
2022-12-28T05:27:51.939Z,7.17
2022-12-28T05:30:20.259Z,6.68
2022-12-28T05:32:48.583Z,6.30
2022-12-28T05:35:17.127Z,6.55
2022-12-28T05:37:45.414Z,6.78
2022-12-28T05:40:13.873Z,6.38
2022-12-28T05:42:47.997Z,6.20
2022-12-28T05:45:20.048Z,6.60
2022-12-28T05:47:48.517Z,6.40
2022-12-28T05:50:17.198Z,6.03
2022-12-28T05:52:45.693Z,6.10
2022-12-28T05:55:14.071Z,6.45
2022-12-28T05:57:43.766Z,6.35
2022-12-28T06:00:13.457Z,5.95
2022-12-28T06:02:41.986Z,6.37
2022-12-28T06:05:10.845Z,6.75
2022-12-28T06:07:39.233Z,6.60
2022-12-28T06:10:09.255Z,6.53
2022-12-28T06:12:37.586Z,5.75
2022-12-28T06:15:09.014Z,6.07
2022-12-28T06:17:37.402Z,6.43
2022-12-28T06:20:07.095Z,6.70
2022-12-28T06:22:36.154Z,5.93
2022-12-28T06:25:04.795Z,6.20
2022-12-28T06:27:33.027Z,6.40
2022-12-28T06:30:01.302Z,6.40
2022-12-28T06:32:31.072Z,6.25
2022-12-28T06:34:59.342Z,6.70
2022-12-28T06:37:27.593Z,6.53
2022-12-28T06:39:55.915Z,6.43
2022-12-28T06:42:24.178Z,6.00
2022-12-28T06:44:52.456Z,6.85
2022-12-28T06:47:20.727Z,6.25
2022-12-28T06:49:50.377Z,6.30
2022-12-28T06:52:18.739Z,5.95
2022-12-28T06:54:47.036Z,6.40
2022-12-28T06:57:15.273Z,6.25
2022-12-28T06:59:43.558Z,5.82
2022-12-28T07:02:12.042Z,6.00
2022-12-28T07:04:40.417Z,6.75
2022-12-28T07:07:10.924Z,5.80
2022-12-28T07:09:39.222Z,6.72
2022-12-28T07:12:07.994Z,6.10
2022-12-28T07:14:36.353Z,6.53
2022-12-28T07:17:04.685Z,5.90
2022-12-28T07:19:33.004Z,6.72
2022-12-28T07:22:01.287Z,5.60
2022-12-28T07:24:31.099Z,5.57
2022-12-28T07:26:59.403Z,7.03
2022-12-28T07:29:27.703Z,6.00
2022-12-28T07:31:56.064Z,6.47
2022-12-28T07:34:24.480Z,6.60
2022-12-28T07:36:52.804Z,6.50
2022-12-28T07:39:21.116Z,6.82
2022-12-28T07:41:50.777Z,5.90
2022-12-28T07:44:27.911Z,5.97
2022-12-28T07:46:57.791Z,5.80
2022-12-28T07:49:26.050Z,6.68
2022-12-28T07:51:54.337Z,5.97
2022-12-28T07:54:22.767Z,6.28
2022-12-28T07:56:52.405Z,6.00
2022-12-28T07:59:25.961Z,6.43
2022-12-28T08:01:57.756Z,6.03
2022-12-28T08:04:26.253Z,5.78
2022-12-28T08:06:54.549Z,5.80
2022-12-28T08:09:22.908Z,5.93
2022-12-28T08:11:52.658Z,6.45
2022-12-28T08:14:21.149Z,6.17
2022-12-28T08:16:49.458Z,6.35
2022-12-28T08:19:17.747Z,7.38
2022-12-28T08:21:47.058Z,7.40
2022-12-28T08:24:17.573Z,7.60
2022-12-28T08:26:47.456Z,8.48
2022-12-28T08:29:20.461Z,8.88
2022-12-28T08:31:50.215Z,9.00
2022-12-28T08:34:23.078Z,9.67
2022-12-28T08:36:51.436Z,9.68
2022-12-28T08:39:19.929Z,9.63
2022-12-28T08:41:49.893Z,8.35
2022-12-28T08:44:19.709Z,8.98
2022-12-28T08:46:48.133Z,8.63
2022-12-28T08:49:16.730Z,8.20
2022-12-28T08:51:45.278Z,8.02
2022-12-28T08:54:14.876Z,8.18
2022-12-28T08:56:45.808Z,8.27
2022-12-28T08:59:16.896Z,7.70
2022-12-28T09:01:48.211Z,8.00
2022-12-28T09:04:18.823Z,8.48
2022-12-28T09:06:47.616Z,7.45
2022-12-28T09:09:19.285Z,8.23
2022-12-28T09:11:48.443Z,8.00
2022-12-28T09:14:23.184Z,8.45
2022-12-28T09:16:54.556Z,7.85
2022-12-28T09:19:23.205Z,7.90
2022-12-28T09:21:53.152Z,9.50
2022-12-28T09:24:22.131Z,8.98
2022-12-28T09:26:52.579Z,9.73
2022-12-28T09:29:21.269Z,9.23
2022-12-28T09:31:49.679Z,9.27
2022-12-28T09:34:37.275Z,8.02
2022-12-28T09:37:07.059Z,8.20
2022-12-28T09:39:35.876Z,7.95
2022-12-28T09:42:09.473Z,8.00
2022-12-28T09:45:00.549Z,7.40
2022-12-28T09:47:39.598Z,7.68
2022-12-28T09:50:31.063Z,7.00
2022-12-28T09:53:19.741Z,6.82
2022-12-28T09:55:58.874Z,7.35
2022-12-28T09:58:28.777Z,6.68
2022-12-28T10:00:59.932Z,6.65
2022-12-28T10:03:34.705Z,6.80
2022-12-28T10:06:13.309Z,6.90
2022-12-28T10:08:46.856Z,6.88
2022-12-28T10:11:20.351Z,6.80
2022-12-28T10:13:55.930Z,6.63
2022-12-28T10:16:27.850Z,8.20
2022-12-28T10:18:56.646Z,7.95
2022-12-28T10:21:32.881Z,8.45
2022-12-28T10:26:51.181Z,7.95
2022-12-28T10:29:22.463Z,7.25
2022-12-28T10:32:02.370Z,7.93
2022-12-28T10:34:33.928Z,7.80
2022-12-28T10:37:15.965Z,8.80
2022-12-28T10:39:51.593Z,8.43
2022-12-28T10:42:27.597Z,8.13
2022-12-28T10:45:04.263Z,8.35
2022-12-28T10:47:36.508Z,9.45
2022-12-28T10:52:59.768Z,7.40
2022-12-28T10:55:31.580Z,7.40
2022-12-28T10:58:29.124Z,7.00
2022-12-28T11:04:08.401Z,7.95
2022-12-28T11:06:52.519Z,8.30
2022-12-28T11:09:25.378Z,8.70
2022-12-28T11:11:57.052Z,8.80
2022-12-28T11:14:33.457Z,10.35
2022-12-28T11:17:17.666Z,9.13
2022-12-28T11:19:48.299Z,8.73
2022-12-28T11:22:23.352Z,8.88
2022-12-28T11:24:52.074Z,8.85
2022-12-28T11:27:23.893Z,8.80
2022-12-28T11:29:55.519Z,9.25
2022-12-28T11:32:29.647Z,8.00
2022-12-28T11:34:59.803Z,8.15
2022-12-28T11:37:28.396Z,7.97
2022-12-28T11:39:58.575Z,7.63
2022-12-28T11:42:56.078Z,7.70
2022-12-28T11:45:54.029Z,7.75
2022-12-28T11:48:51.165Z,7.25
2022-12-28T11:51:23.477Z,9.02
2022-12-28T11:53:59.068Z,8.55
2022-12-28T11:56:29.879Z,8.20
2022-12-28T11:59:23.195Z,8.55
2022-12-28T12:01:54.259Z,6.47
2022-12-28T12:04:33.565Z,7.07
2022-12-28T12:07:31.251Z,6.00
2022-12-28T12:10:34.050Z,6.13
2022-12-28T12:13:40.927Z,5.75
2022-12-28T12:16:21.809Z,5.97
2022-12-28T12:18:54.540Z,6.65
2022-12-28T12:21:31.612Z,6.90
2022-12-28T12:24:26.697Z,7.03
2022-12-28T12:26:59.698Z,6.70
2022-12-28T12:29:38.279Z,6.13
2022-12-28T12:32:15.712Z,6.30
2022-12-28T12:34:47.714Z,6.53
2022-12-28T12:37:38.222Z,6.80
2022-12-28T12:40:52.804Z,7.20
2022-12-28T12:43:36.045Z,6.40
2022-12-28T12:46:36.121Z,5.80
2022-12-28T12:49:47.175Z,7.00
2022-12-28T12:52:29.457Z,7.18
2022-12-28T12:55:15.149Z,6.25
2022-12-28T12:57:58.020Z,6.38
2022-12-28T13:00:48.497Z,6.32
2022-12-28T13:03:25.386Z,6.55
2022-12-28T13:06:00.540Z,5.95
2022-12-28T13:08:37.759Z,6.60
2022-12-28T13:11:10.652Z,6.78
2022-12-28T13:13:41.332Z,6.30
2022-12-28T13:21:22.078Z,6.75
2022-12-28T13:23:52.083Z,6.05
2022-12-28T13:26:29.046Z,6.47
2022-12-28T13:29:01.731Z,6.07
2022-12-28T13:31:38.609Z,6.50
2022-12-28T13:34:18.388Z,6.07
2022-12-28T13:36:53.747Z,5.95
2022-12-28T13:39:23.895Z,6.35
2022-12-28T13:41:55.111Z,6.93
2022-12-28T13:44:37.386Z,6.53
2022-12-28T13:47:20.095Z,6.10
2022-12-28T13:49:56.705Z,6.18
2022-12-28T13:52:28.728Z,6.07
2022-12-28T13:55:01.777Z,5.85
2022-12-28T13:57:52.643Z,6.18
2022-12-28T14:02:56.260Z,6.10
2022-12-28T14:05:28.712Z,5.82
2022-12-28T14:07:59.175Z,6.40
2022-12-28T14:10:30.306Z,6.80
2022-12-28T14:12:59.913Z,6.03
2022-12-28T14:15:28.318Z,6.47
2022-12-28T14:17:58.718Z,6.10
2022-12-28T14:20:27.386Z,6.90
2022-12-28T14:22:55.931Z,7.03
2022-12-28T14:25:24.961Z,6.45
2022-12-28T14:28:00.280Z,6.28
2022-12-28T14:30:32.024Z,5.90
2022-12-28T14:33:22.276Z,5.68
2022-12-28T14:35:56.504Z,6.40
2022-12-28T14:38:30.149Z,5.95
2022-12-28T14:41:01.423Z,6.68
2022-12-28T14:43:32.752Z,6.15
2022-12-28T14:46:18.979Z,6.30
2022-12-28T14:48:48.915Z,6.78
2022-12-28T14:51:38.575Z,5.93
2022-12-28T14:54:21.072Z,6.47
2022-12-28T14:56:55.044Z,6.53
2022-12-28T14:59:28.753Z,6.60
2022-12-28T15:01:57.512Z,6.82
2022-12-28T15:04:35.934Z,5.97
2022-12-28T15:07:05.232Z,6.03
2022-12-28T15:09:33.648Z,6.07
2022-12-28T15:12:10.763Z,6.32
2022-12-28T15:14:39.247Z,5.85
2022-12-28T15:17:08.784Z,6.30
2022-12-28T15:19:38.871Z,6.10
2022-12-28T15:22:07.330Z,6.20
2022-12-28T15:24:35.737Z,5.85
2022-12-28T15:27:05.168Z,6.45
2022-12-28T15:32:22.434Z,6.63
2022-12-28T15:34:52.127Z,6.75
2022-12-28T15:37:20.639Z,6.10
2022-12-28T15:39:49.734Z,5.88
2022-12-28T15:42:18.103Z,6.15
2022-12-28T15:44:48.664Z,6.50
2022-12-28T15:49:45.328Z,6.53
2022-12-28T15:52:15.083Z,6.63
2022-12-28T15:54:47.204Z,6.73
2022-12-28T15:57:16.311Z,6.28
2022-12-28T15:59:44.623Z,6.05
2022-12-28T16:02:13.832Z,6.65
2022-12-28T16:04:42.454Z,5.60
2022-12-28T16:07:11.188Z,5.70
2022-12-28T16:09:40.889Z,6.03
2022-12-28T16:12:09.867Z,5.43
2022-12-28T16:14:38.268Z,5.10
2022-12-28T16:17:06.567Z,5.13
2022-12-28T16:19:35.242Z,5.45
2022-12-28T16:22:03.660Z,4.97
2022-12-28T16:24:32.061Z,5.53
2022-12-28T16:27:02.006Z,5.55
2022-12-28T16:29:30.635Z,6.35
2022-12-28T16:32:01.819Z,5.35
2022-12-28T16:34:31.755Z,5.80
2022-12-28T16:37:00.649Z,5.50
2022-12-28T16:39:30.649Z,5.85
2022-12-28T16:42:00.898Z,5.78
2022-12-28T16:44:29.648Z,5.50
2022-12-28T16:46:59.648Z,6.18
2022-12-28T16:49:29.620Z,5.47
2022-12-28T16:51:58.387Z,6.80
2022-12-28T16:54:29.031Z,6.60
2022-12-28T16:59:29.458Z,7.30
2022-12-28T17:01:59.490Z,7.50
2022-12-28T17:04:28.187Z,8.15
2022-12-28T17:06:56.812Z,7.63
2022-12-28T17:09:25.329Z,8.00
2022-12-28T17:11:53.705Z,7.13
2022-12-28T17:14:37.009Z,7.90
2022-12-28T17:17:07.935Z,7.72
2022-12-28T17:19:37.113Z,7.82
2022-12-28T17:22:06.019Z,7.20
2022-12-28T17:24:34.778Z,8.07
2022-12-28T17:27:08.197Z,7.30
2022-12-28T17:29:38.671Z,7.00
2022-12-28T17:32:09.378Z,7.80
2022-12-28T17:34:38.593Z,6.90
2022-12-28T17:37:06.989Z,7.63
2022-12-28T17:39:40.246Z,7.10
2022-12-28T17:42:10.299Z,8.57
2022-12-28T17:44:39.088Z,8.18
2022-12-28T17:47:09.696Z,7.80
2022-12-28T17:52:07.026Z,8.07
2022-12-28T17:54:35.677Z,7.50
2022-12-28T17:57:04.273Z,8.85
2022-12-28T17:59:33.103Z,8.45
2022-12-28T18:02:05.015Z,8.40
2022-12-28T18:04:35.546Z,8.80
2022-12-28T18:07:04.579Z,8.85
2022-12-28T18:09:32.898Z,9.35
2022-12-28T18:12:02.069Z,9.48
2022-12-28T18:14:30.705Z,9.95
2022-12-28T18:16:59.171Z,9.23
2022-12-28T18:19:27.779Z,12.13
2022-12-28T18:21:57.563Z,11.38
2022-12-28T18:24:25.915Z,10.07
2022-12-28T18:26:54.514Z,11.35
2022-12-28T18:29:23.072Z,12.15
2022-12-28T18:31:51.379Z,11.65
2022-12-28T18:34:19.807Z,10.73
2022-12-28T18:36:49.285Z,10.48
2022-12-28T18:39:19.054Z,9.80
2022-12-28T18:41:47.487Z,10.27
2022-12-28T18:44:15.999Z,10.15
2022-12-28T18:46:44.452Z,9.68
2022-12-28T18:49:12.935Z,10.02
2022-12-28T18:51:41.289Z,9.77
2022-12-28T18:54:09.657Z,10.20
2022-12-28T18:56:39.762Z,9.93
2022-12-28T18:59:08.098Z,11.05
2022-12-28T19:04:29.661Z,10.05
2022-12-28T19:06:58.264Z,11.02
2022-12-28T19:09:26.714Z,10.50
2022-12-28T19:11:56.686Z,11.63
2022-12-28T19:14:25.295Z,10.15
2022-12-28T19:16:53.695Z,10.30
2022-12-28T19:19:22.335Z,10.52
2022-12-28T19:21:56.550Z,10.68
2022-12-28T19:24:27.050Z,10.55
2022-12-28T19:26:57.034Z,10.48
2022-12-28T19:29:25.544Z,10.43
2022-12-28T19:31:54.890Z,10.48
2022-12-28T19:34:23.323Z,10.57
2022-12-28T19:36:51.741Z,10.43
2022-12-28T19:39:20.462Z,10.20
2022-12-28T19:41:48.846Z,10.35
2022-12-28T19:44:20.868Z,8.52
2022-12-28T19:46:49.623Z,8.88
2022-12-28T19:49:18.047Z,8.30
2022-12-28T19:51:46.738Z,8.57
2022-12-28T19:54:15.112Z,8.35
2022-12-28T19:56:43.604Z,8.68
2022-12-28T19:59:11.917Z,8.15
2022-12-28T20:01:41.776Z,8.20
2022-12-28T20:04:13.868Z,9.20
2022-12-28T20:06:43.799Z,8.93
2022-12-28T20:09:14.275Z,7.57
2022-12-28T20:11:43.324Z,7.97
2022-12-28T20:14:14.463Z,7.65
2022-12-28T20:16:44.704Z,7.97
2022-12-28T20:19:13.975Z,7.20
2022-12-28T20:21:42.739Z,7.65
2022-12-28T20:24:16.463Z,7.60
2022-12-28T20:26:44.874Z,7.03
2022-12-28T20:29:16.195Z,7.63
2022-12-28T20:31:46.102Z,7.95
2022-12-28T20:34:14.600Z,7.57
2022-12-28T20:36:43.238Z,7.47
2022-12-28T20:39:11.676Z,7.22
2022-12-28T20:41:56.803Z,7.85
2022-12-28T20:44:28.286Z,7.25
2022-12-28T20:46:58.898Z,7.50
2022-12-28T20:49:28.412Z,7.47
2022-12-28T20:51:57.022Z,7.40
2022-12-28T20:54:26.368Z,6.95
2022-12-28T20:56:56.179Z,6.50
2022-12-28T20:59:26.013Z,7.50
2022-12-28T21:01:55.179Z,6.80
2022-12-28T21:04:26.047Z,7.65
2022-12-28T21:09:23.474Z,6.72
2022-12-28T21:11:51.949Z,7.25
2022-12-28T21:14:20.809Z,6.78
2022-12-28T21:16:49.461Z,6.80
2022-12-28T21:19:18.014Z,6.90
2022-12-28T21:21:49.568Z,6.50
2022-12-28T21:24:17.985Z,6.97
2022-12-28T21:26:46.306Z,7.47
2022-12-28T21:29:17.917Z,6.88
2022-12-28T21:31:51.650Z,6.82
2022-12-28T21:34:20.124Z,6.53
2022-12-28T21:36:49.953Z,7.05
2022-12-28T21:39:18.558Z,6.93
2022-12-28T21:41:49.779Z,6.82
2022-12-28T21:44:21.144Z,6.85
2022-12-28T21:46:51.853Z,7.28
2022-12-28T21:51:51.464Z,6.82
2022-12-28T21:54:22.075Z,6.50
2022-12-28T21:56:53.629Z,7.22
2022-12-28T21:59:23.334Z,8.02
2022-12-28T22:02:09.871Z,8.23
2022-12-28T22:05:02.250Z,7.65
2022-12-28T22:07:33.299Z,8.32
2022-12-28T22:10:19.193Z,7.63
2022-12-28T22:12:47.683Z,7.80
2022-12-28T22:15:36.122Z,8.35
2022-12-28T22:18:06.769Z,7.97
2022-12-28T22:20:37.396Z,7.90
2022-12-28T22:23:07.424Z,8.43
2022-12-28T22:25:37.408Z,7.72
2022-12-28T22:28:07.018Z,7.80
2022-12-28T22:30:37.660Z,7.93
2022-12-28T22:33:06.245Z,7.78
2022-12-28T22:35:35.191Z,7.78
2022-12-28T22:38:03.864Z,7.85
2022-12-28T22:40:33.594Z,7.38
2022-12-28T22:43:01.902Z,7.53
2022-12-28T22:45:30.298Z,7.68
2022-12-28T22:47:59.576Z,8.13
2022-12-28T22:50:29.385Z,7.72
2022-12-28T22:52:58.407Z,7.60
2022-12-28T22:55:26.794Z,6.88
2022-12-28T22:57:56.564Z,7.05
2022-12-28T23:00:24.915Z,6.78
2022-12-28T23:02:53.415Z,6.63
2022-12-28T23:05:21.865Z,6.82
2022-12-28T23:07:50.210Z,6.97
2022-12-28T23:10:18.738Z,6.72
2022-12-28T23:12:47.079Z,6.32
2022-12-28T23:15:16.200Z,6.60
2022-12-28T23:17:44.535Z,6.55
2022-12-28T23:20:30.994Z,6.00
2022-12-28T23:23:17.091Z,5.78
2022-12-28T23:26:03.238Z,6.22
2022-12-28T23:28:31.608Z,5.72
2022-12-28T23:31:02.050Z,6.20
2022-12-28T23:33:30.503Z,5.47
2022-12-28T23:36:03.743Z,5.47
2022-12-28T23:38:33.560Z,5.85
2022-12-28T23:41:39.495Z,5.97
2022-12-28T23:44:08.015Z,5.55
2022-12-28T23:46:37.743Z,5.38
2022-12-28T23:49:07.824Z,5.53
2022-12-28T23:51:36.162Z,5.25
2022-12-28T23:54:04.537Z,5.65
2022-12-28T23:56:32.904Z,5.55
2022-12-28T23:59:01.195Z,5.35
